Albuquerque, NM (87187)

12:12 AM MDT on July 25, 2016 (GMT -0600)
Vista Casitas | | Change Station

Elev 5466 ft 35.19 °N, 106.74 °W | Updated 2 minutes ago

Mostly Cloudy
Mostly Cloudy
69.7 °F
Feels Like 69.7 °F
N
0.0
Wind Variable Wind from South
Gusts 0.0 mph

Today
High -- | Low -- °F
--% Chance of Precip.
Yesterday
High -- | Low -- °F
Precip. -- in
Pressure 29.95 in
Visibility 10.0 miles
Clouds Scattered Clouds 12000 ft
Mostly Cloudy 18000 ft
Dew Point 54 °F
Humidity 57%
Rainfall 0.00 in
Snow Depth Not available.
6:11 AM 8:15 PM
Waning Gibbous, 69% visible
METAR KABQ 250552Z 36005KT 10SM SCT120 BKN180 24/13 A3024 RMK AO2 SLP141 60005 T02390128 10300 20228 50012
Pressure 29.95 in
Visibility 10.0 miles
Clouds Scattered Clouds 12000 ft
Mostly Cloudy 18000 ft
Dew Point 54 °F
Humidity 57%
Rainfall 0.00 in
Snow Depth Not available.
6:11 AM 8:15 PM
Waning Gibbous, 69% visible
METAR KABQ 250552Z 36005KT 10SM SCT120 BKN180 24/13 A3024 RMK AO2 SLP141 60005 T02390128 10300 20228 50012

10-Day Weather Forecast

Almanac

Astronomy

Jul. 25, 2016 Rise Set
Actual Time
Civil Twilight
Nautical Twilight
Astronomical Twilight
Moon
Length of Visible Light
Length of Day
Tomorrow will be .
, % of the Moon is Illuminated

Today's Extremes

State Highs State Lows

Community

WunderPhotos

Upload Photos

1,927,276 photos uploaded!

WunderBlog® & News

Nearby

Air Quality

  Air Quality AQ Index Pollutant
Not available.

Snow Depth

Station Depth Elevation

Earthquake Activity

City Distance Mag. Time & Date
Minimum magnitude displayed is 2.5.

Coastal Water Temperatures

Place Temperature

Stations

Nearby Weather Stations

Station Location Temp. Windchill Dew Point Humidity Wind Precip. Elev Updated Type
                   

Watches & Warnings

There are currently no watches in effect.